Terminal Aerodrome Forecast
Issued by NWS

Home | Current Version | Previous Version | Graphics & Text | Print | Product List | Glossary On
Versions: 1 2 3 4 5 6 7 8 9 10 11 12
000
FTUS45 KGGW 162320
TAFOLF
TAF
KOLF 162320Z 1700/1724 27008KT P6SM OVC080
     FM170600 32005KT P6SM OVC045
     FM171000 30008KT P6SM OVC070=

USA.gov is the U.S. government's official web portal to all federal, state and local government web resources and services.